Terminal Aerodrome Forecast
Issued by NWS

Current Version | Previous Version | Text Only | Print | Product List | Glossary On
Versions: 1 2 3 4 5 6 7 8 9 10 11 12 13 14 15 16 17
715 FTUS41 KGYX 231120 TAFLEB TAF KLEB 231120Z 2312/2412 00000KT P6SM SCT040 BKN080 FM231300 18004KT P6SM BKN120 FM231700 20012G18KT P6SM VCSH BKN060 FM240100 21008KT 4SM BR OVC012=

USA.gov is the U.S. government's official web portal to all federal, state and local government web resources and services.